Time;durP1;ratioP1;P1;durP2;ratioP2;P2;SDS_P1;SDS_P2;PMS_P1;PMS_P2;Temp;Humidity;BMP_temperature;BMP_pressure;BME280_temperature;BME280_humidity;BME280_pressure;Samples;Min_cycle;Max_cycle;Signal;HPM_P1;HPM_P2
2021/03/31 00:04:12;;;;;;;80.95;45.05;;;;;;;5.81;83.53;100185.31;4135752;84;21222;-91
2021/03/31 00:10:22;;;;;;;79.50;41.90;;;;;;;5.70;83.57;100185.92;4105898;84;21623;-93
2021/03/31 00:27:20;;;;;;;67.05;35.35;;;;;;;5.74;84.09;100171.39;4433263;76;22694;-92
2021/03/31 00:33:26;;;;;;;58.78;34.13;;;;;;;5.62;84.08;100171.17;4394738;79;21620;-91
2021/03/31 00:39:28;;;;;;;53.10;27.80;;;;;;;5.72;84.22;100167.38;4387481;79;21156;-91
2021/03/31 00:45:29;;;;;;;66.07;37.40;;;;;;;5.70;83.99;100158.77;4392097;79;21718;-90
2021/03/31 00:51:31;;;;;;;77.35;43.45;;;;;;;5.66;83.89;100153.14;4378349;79;21639;-91
2021/03/31 00:57:35;;;;;;;54.98;33.50;;;;;;;5.43;83.24;100159.77;4383502;79;21787;-91
2021/03/31 01:03:37;;;;;;;84.50;45.33;;;;;;;5.21;83.55;100159.02;4378172;79;21608;-92
2021/03/31 01:09:39;;;;;;;84.07;47.67;;;;;;;5.17;83.94;100156.69;4397618;79;21660;-91
2021/03/31 01:16:32;;;;;;;71.80;41.00;;;;;;;5.04;84.00;100153.48;4373570;79;21236;-91
2021/03/31 01:23:03;;;;;;;72.95;42.15;;;;;;;4.86;84.00;100151.22;4386308;79;21240;-92
2021/03/31 01:29:38;;;;;;;67.20;38.75;;;;;;;4.73;84.15;100151.52;4389275;79;21627;-91
2021/03/31 01:35:41;;;;;;;74.97;42.70;;;;;;;4.81;84.90;100154.86;4369412;79;21177;-92
2021/03/31 01:41:45;;;;;;;80.30;44.05;;;;;;;4.83;84.55;100156.72;4388257;79;21212;-93
2021/03/31 01:47:48;;;;;;;80.97;44.83;;;;;;;4.82;84.35;100159.16;4359273;79;21772;-91
2021/03/31 01:53:52;;;;;;;80.85;42.67;;;;;;;4.73;84.69;100158.31;4363523;79;22365;-91
2021/03/31 01:59:54;;;;;;;72.87;40.03;;;;;;;4.62;84.49;100157.49;4374443;80;21151;-91
2021/03/31 02:05:58;;;;;;;72.62;39.65;;;;;;;4.48;84.09;100151.32;4388273;79;21224;-92
2021/03/31 02:12:02;;;;;;;64.75;36.75;;;;;;;4.50;84.93;100156.70;4395058;79;21184;-91
2021/03/31 02:18:14;;;;;;;66.60;38.05;;;;;;;4.65;85.09;100146.06;4284496;81;21904;-92
2021/03/31 02:24:21;;;;;;;68.72;39.53;;;;;;;4.52;84.59;100146.36;4280563;81;21362;-91
2021/03/31 02:30:27;;;;;;;71.35;41.02;;;;;;;4.42;84.41;100144.42;4273601;81;22258;-92
2021/03/31 02:36:32;;;;;;;43.53;25.67;;;;;;;4.34;84.43;100135.66;4311387;81;21206;-90
2021/03/31 02:42:35;;;;;;;70.30;38.48;;;;;;;4.28;85.07;100134.17;4300413;81;21240;-92
2021/03/31 02:48:38;;;;;;;72.10;40.98;;;;;;;4.42;85.30;100133.58;4302024;81;21167;-92
2021/03/31 02:54:44;;;;;;;68.65;37.05;;;;;;;4.40;84.47;100128.45;4313369;81;21196;-90
2021/03/31 03:00:47;;;;;;;69.92;38.48;;;;;;;4.24;84.94;100129.94;4275422;81;21204;-93
2021/03/31 03:06:49;;;;;;;61.23;36.88;;;;;;;4.48;85.44;100132.34;4297443;81;21178;-91
2021/03/31 03:12:58;;;;;;;63.78;35.70;;;;;;;4.51;84.94;100133.89;4173664;83;21689;-90
2021/03/31 03:19:00;;;;;;;65.42;33.85;;;;;;;4.51;84.75;100135.25;4357647;80;21201;-90
2021/03/31 03:25:04;;;;;;;63.87;36.85;;;;;;;4.55;85.05;100134.89;4335693;80;21192;-92
2021/03/31 03:31:12;;;;;;;70.47;38.00;;;;;;;4.31;84.17;100128.14;4320412;80;21827;-91
2021/03/31 03:37:30;;;;;;;75.32;41.45;;;;;;;4.07;84.35;100127.05;4395466;79;22538;-93
2021/03/31 03:43:33;;;;;;;68.62;39.25;;;;;;;3.84;84.39;100122.69;4328494;81;21176;-93
2021/03/31 03:49:39;;;;;;;59.42;35.03;;;;;;;3.72;84.87;100118.34;4325340;81;21182;-92
2021/03/31 03:55:43;;;;;;;68.70;37.80;;;;;;;3.88;85.39;100118.28;4263508;80;2295942;-91
2021/03/31 04:01:45;;;;;;;77.25;42.62;;;;;;;3.95;84.42;100116.48;4073121;86;21173;-93
2021/03/31 04:07:47;;;;;;;69.77;39.95;;;;;;;3.63;84.76;100109.88;4074488;86;21368;-91
2021/03/31 04:13:49;;;;;;;76.53;39.78;;;;;;;3.55;85.27;100120.87;4072787;85;40126;-92
2021/03/31 04:19:53;;;;;;;74.00;39.35;;;;;;;3.46;85.11;100123.22;4074712;86;21623;-90
2021/03/31 04:25:57;;;;;;;73.12;44.38;;;;;;;3.64;85.62;100125.01;4018822;88;21648;-90
2021/03/31 04:31:59;;;;;;;71.47;39.55;;;;;;;3.50;85.25;100122.31;4073992;86;21217;-92
2021/03/31 04:38:14;;;;;;;70.52;37.78;;;;;;;3.55;85.68;100118.70;4079163;86;21209;-92
2021/03/31 04:44:15;;;;;;;80.22;41.40;;;;;;;3.64;85.60;100112.83;4073828;86;21224;-90
2021/03/31 04:50:17;;;;;;;71.87;37.35;;;;;;;3.81;85.31;100110.30;4073982;86;21192;-91
2021/03/31 04:56:19;;;;;;;74.40;38.60;;;;;;;3.71;85.36;100115.37;4070899;86;21233;-89
2021/03/31 05:02:21;;;;;;;68.97;37.38;;;;;;;3.87;85.92;100109.11;4084899;85;21224;-91
2021/03/31 05:08:22;;;;;;;67.65;37.40;;;;;;;4.08;85.50;100108.89;4069978;86;21197;-91
2021/03/31 05:14:24;;;;;;;71.90;39.33;;;;;;;4.17;85.58;100113.28;4083785;85;21379;-92
2021/03/31 05:20:26;;;;;;;81.02;44.15;;;;;;;4.36;85.83;100114.47;4082244;86;21208;-92
2021/03/31 05:26:27;;;;;;;79.70;42.45;;;;;;;4.56;85.93;100110.73;3980603;86;104424;-89
2021/03/31 05:32:29;;;;;;;78.20;41.20;;;;;;;4.80;85.72;100113.93;3971859;88;21924;-91
2021/03/31 05:38:30;;;;;;;73.12;40.58;;;;;;;5.02;85.74;100115.80;3967986;89;21219;-92
2021/03/31 05:44:32;;;;;;;74.77;42.55;;;;;;;5.24;85.89;100121.19;3970772;89;21268;-90
2021/03/31 05:50:34;;;;;;;74.90;39.20;;;;;;;5.44;86.04;100111.13;3967263;89;21262;-91
2021/03/31 05:56:37;;;;;;;66.07;37.28;;;;;;;5.70;86.09;100109.86;3928179;89;21760;-92
2021/03/31 06:02:44;;;;;;;65.05;37.40;;;;;;;6.01;86.23;100101.85;3965460;89;21262;-91
2021/03/31 06:08:46;;;;;;;81.15;47.03;;;;;;;6.24;86.18;100098.45;3973947;89;21253;-91
2021/03/31 06:14:48;;;;;;;71.97;47.73;;;;;;;6.64;86.70;100105.88;3972180;89;21184;-91
2021/03/31 06:20:58;;;;;;;61.58;40.30;;;;;;;7.18;87.00;100096.38;3973409;89;21236;-92
2021/03/31 06:27:00;;;;;;;58.25;37.98;;;;;;;7.95;87.26;100092.68;3961137;87;37653;-90
2021/03/31 06:33:02;;;;;;;54.35;34.18;;;;;;;8.61;87.00;100101.84;3960984;88;21258;-90
2021/03/31 06:39:31;;;;;;;50.52;32.28;;;;;;;9.17;86.67;100109.86;3959643;89;21207;-91
2021/03/31 06:45:38;;;;;;;66.97;38.90;;;;;;;9.58;86.28;100106.14;3956748;88;21234;-92
2021/03/31 06:51:39;;;;;;;60.60;37.83;;;;;;;9.79;86.17;100112.31;3960473;88;21293;-91
2021/03/31 06:57:40;;;;;;;54.63;34.05;;;;;;;10.20;86.44;100108.73;3958449;88;21278;-93
2021/03/31 07:03:42;;;;;;;54.15;32.88;;;;;;;10.74;86.40;100097.59;3960071;88;21262;-90
2021/03/31 07:09:44;;;;;;;43.48;29.82;;;;;;;11.13;86.04;100095.33;3958856;88;21238;-90
2021/03/31 07:15:46;;;;;;;46.13;29.75;;;;;;;11.60;85.43;100094.00;3957478;88;21724;-91
2021/03/31 07:21:49;;;;;;;50.73;32.60;;;;;;;11.95;84.64;100094.07;3957872;88;21187;-92
2021/03/31 07:27:56;;;;;;;46.20;31.87;;;;;;;12.46;84.11;100086.77;3957022;88;21714;-91
2021/03/31 07:34:19;;;;;;;42.40;28.70;;;;;;;13.05;83.92;100080.08;3939921;88;21649;-91
2021/03/31 07:40:20;;;;;;;38.80;24.12;;;;;;;13.62;83.13;100075.77;3965383;88;21226;-92
2021/03/31 07:46:31;;;;;;;43.52;26.37;;;;;;;14.19;82.20;100072.68;3964293;88;21802;-91
2021/03/31 07:52:52;;;;;;;46.55;29.87;;;;;;;14.73;81.32;100068.89;3965075;88;21231;-93
2021/03/31 07:59:11;;;;;;;50.10;30.25;;;;;;;15.30;80.45;100071.64;3898482;90;21210;-93
2021/03/31 08:05:16;;;;;;;50.80;31.85;;;;;;;15.72;78.87;100066.50;3958519;88;21222;-91
2021/03/31 08:11:42;;;;;;;44.00;28.30;;;;;;;16.14;78.79;100058.49;3957554;88;21285;-93
2021/03/31 08:17:44;;;;;;;40.58;26.55;;;;;;;16.73;77.73;100059.37;3955745;89;21272;-93
2021/03/31 08:23:52;;;;;;;40.88;25.37;;;;;;;17.29;76.73;100055.91;3955437;89;21231;-93
2021/03/31 08:30:07;;;;;;;37.75;25.57;;;;;;;17.86;74.23;100054.75;3990842;87;81538;-92
2021/03/31 08:36:05;;;;;;;38.50;26.42;;;;;;;18.10;73.71;100048.36;4019333;87;21228;-92
2021/03/31 08:42:08;;;;;;;39.83;26.17;;;;;;;18.32;71.18;100035.25;4084844;85;33889;-93
2021/03/31 08:48:10;;;;;;;37.98;24.50;;;;;;;18.44;66.27;100034.23;4128298;84;21234;-93
2021/03/31 08:54:12;;;;;;;36.38;23.15;;;;;;;18.69;68.80;100023.02;4145162;84;21206;-93
2021/03/31 09:00:15;;;;;;;36.38;22.30;;;;;;;19.08;68.01;100015.83;4143748;84;21202;-93
2021/03/31 09:06:20;;;;;;;34.90;22.77;;;;;;;19.66;66.99;100009.64;4152121;84;21261;-92
2021/03/31 09:12:26;;;;;;;34.90;23.10;;;;;;;20.57;64.70;100002.27;4153626;84;21190;-92
2021/03/31 09:18:29;;;;;;;33.38;20.75;;;;;;;21.22;64.71;99994.77;4134071;84;21249;-93
2021/03/31 09:24:31;;;;;;;32.90;22.00;;;;;;;21.52;62.44;99994.66;4147138;84;21186;-92
2021/03/31 09:30:32;;;;;;;31.87;20.57;;;;;;;22.40;60.25;99985.23;4151267;84;21198;-93
2021/03/31 09:36:34;;;;;;;31.23;19.85;;;;;;;22.98;59.30;99971.19;4135254;84;21242;-95
2021/03/31 09:42:38;;;;;;;29.92;20.12;;;;;;;23.75;59.11;99969.86;4113898;85;21900;-94
2021/03/31 09:48:41;;;;;;;26.57;17.52;;;;;;;24.97;56.33;99954.89;4196779;82;30026;-94
2021/03/31 09:54:46;;;;;;;25.08;17.40;;;;;;;24.97;56.33;99954.89;4239327;82;21205;-92
2021/03/31 10:00:48;;;;;;;22.27;15.63;;;;;;;25.29;54.37;99946.85;4266396;82;21164;-94
2021/03/31 10:07:14;;;;;;;24.77;16.80;;;;;;;25.64;52.18;99949.85;4258628;82;21177;-93
2021/03/31 10:13:17;;;;;;;22.32;13.98;;;;;;;25.76;52.26;99947.64;4264812;82;21193;-92
2021/03/31 10:19:19;;;;;;;22.62;14.43;;;;;;;25.71;50.91;99946.81;4253627;82;21164;-92
2021/03/31 10:25:29;;;;;;;18.60;13.03;;;;;;;26.24;49.49;99949.11;4238202;82;21227;-94
2021/03/31 10:31:39;;;;;;;20.72;15.10;;;;;;;25.97;43.92;99945.46;4249315;82;21184;-93
2021/03/31 11:00:55;;;;;;;15.38;10.45;;;;;;;27.39;44.15;99900.92;4379713;75;21355;-91
2021/03/31 11:06:57;;;;;;;13.58;10.78;;;;;;;27.55;43.43;99891.41;4330386;80;21656;-91
2021/03/31 11:12:59;;;;;;;16.20;11.08;;;;;;;27.75;42.52;99886.72;4327378;80;21177;-90
2021/03/31 11:19:12;;;;;;;15.95;8.90;;;;;;;27.38;40.09;99871.87;4417631;78;21247;-90
2021/03/31 11:31:28;;;;;;;8.68;6.35;;;;;;;27.93;40.45;99858.59;4263674;81;21387;-90
2021/03/31 11:37:29;;;;;;;5.25;3.50;;;;;;;28.02;39.37;99847.33;4337755;80;21722;-90
2021/03/31 11:43:31;;;;;;;9.75;4.47;;;;;;;27.94;38.21;99843.28;4361155;79;21707;-91
2021/03/31 11:49:32;;;;;;;7.47;5.17;;;;;;;27.50;38.33;99828.78;4258779;81;21319;-92
2021/03/31 11:55:37;;;;;;;4.90;2.70;;;;;;;27.09;37.12;99822.33;4333212;80;21243;-90
2021/03/31 12:01:41;;;;;;;6.15;3.42;;;;;;;26.66;38.02;99812.09;4315155;80;21409;-91
2021/03/31 12:07:43;;;;;;;4.60;2.62;;;;;;;26.44;38.38;99807.77;4299975;80;21205;-92
2021/03/31 18:44:54;;;;;;;34.70;14.90;;;;;;;13.80;55.81;99465.34;4223344;78;71603;-87
2021/03/31 18:50:56;;;;;;;37.60;14.25;;;;;;;13.54;56.51;99456.53;4155625;82;21182;-87
2021/03/31 18:56:58;;;;;;;31.00;14.23;;;;;;;13.29;56.92;99455.00;4144359;82;21382;-87
2021/03/31 19:03:01;;;;;;;31.02;14.83;;;;;;;13.10;57.63;99452.48;4150268;82;21203;-88
2021/03/31 19:15:25;;;;;;;37.25;17.05;;;;;;;12.79;58.77;99446.67;4147051;82;21247;-87
2021/03/31 19:21:28;;;;;;;43.15;20.40;;;;;;;12.64;59.38;99442.42;4078568;80;10000046;-87
2021/03/31 19:27:32;;;;;;;42.75;22.48;;;;;;;12.47;59.67;99443.60;4168200;82;21660;-87
